の過去48時間の天気

Nizhnevartovsk

現在時刻: 11/13 13:20 +05 (11/13 08:20 UTC) 以下の時間は現地時間です。

過去48時間のMETAR気象情報
時間 風向 風速(m/s) 視程 気温(℃) 湿度(%) 気圧(hPa) 天気現象
13 13:00 北東 2 10km以上 -19 84 1030
13 12:30 北東 2 10km以上 -19 84 1030
13 12:00 北東 2 10km以上 -19 77 1029
13 11:30 北東 2 10km以上 -20 84 1029
13 11:00 北東 2 10km以上 -20 84 1029
13 10:30 北東 3 10km以上 -21 84 1028
13 10:00 北東 2 10km以上 -21 77 1028
13 09:30 北北東 2 10km以上 -22 84 1028
13 09:00 北東 3 10km以上 -22 77 1027
13 08:30 北東 3 10km以上 -23 84 1027
13 08:00 北東 3 10km以上 -23 84 1026
13 07:30 北東 3 10km以上 -23 84 1026
13 07:00 北東 3 10km以上 -23 84 1025
13 06:30 北東 3 10km以上 -23 84 1025
13 06:00 北北東 3 10km以上 -22 77 1025
13 05:30 北北東 2 10km以上 -22 84 1024
13 04:30 北北東 2 10km以上 -21 84 1023
13 04:00 北北東 2 10km以上 -21 84 1023
13 03:30 2 10km以上 -20 77 1022
13 03:00 2 10km以上 -20 84 1022
13 02:30 1 10km以上 -20 84 1022
13 02:00 北北西 1 10km以上 -19 84 1021
13 01:30 2 10km以上 -19 84 1021
13 01:00 2 10km以上 -18 84 1020
13 00:30 北北西 2 10km以上 -18 92 1020
13 00:00 北北西 2 10km以上 -17 84 1019
12 23:30 北北西 2 10km以上 -16 85 1019
12 23:00 2 10km以上 -15 85 1018
12 22:30 北西 1 10km以上 -15 92 1018
12 22:00 北西 2 10km以上 -14 85 1018
12 21:30 西北西 2 10km以上 -14 85 1017
12 21:00 北西 2 10km以上 -14 92 1017
12 20:30 北北西 2 10km以上 -13 85 1017
12 20:00 北西 1 9000m -13 92 1016 弱い雪
12 19:30 北西 1 5000m -12 92 1016 弱い雪
12 18:30 北西 1 7000m -11 85 1016 弱い雪
12 18:00 北西 2 5000m -11 85 1015 弱い雪
12 17:30 北西 1 9000m -11 92 1015 弱い雪
12 17:00 北西 1 10km以上 -11 92 1015 弱い雪
12 16:30 北北西 1 9000m -11 92 1014 弱い雪
12 16:00 1 8000m -11 92 1014 弱い雪
12 15:30 2 10km以上 -11 92 1014 弱い雪
12 15:00 2 10km以上 -11 92 1014
12 14:30 不定 1 10km以上 -10 85 1013 弱い雪
12 14:00 北東 2 6000m -10 85 1013 弱い雪
12 13:30 東北東 2 8000m -9 79 1013 弱い雪
12 13:00 東北東 2 10km以上 -9 79 1013
12 12:30 2 9000m -9 79 1012
12 12:00 東南東 2 10km以上 -9 79 1012
12 11:30 南東 2 5000m -9 79 1012 弱い雪
12 11:00 南東 2 4500m -9 85 1012 弱い雪
12 10:30 南東 3 5000m -10 85 1012 弱い雪
12 10:00 南東 3 3600m -10 85 1012 弱い雪
12 09:30 南東 4 4600m -10 85 1012 弱い雪
12 09:00 南東 4 3900m -10 85 1012 弱い雪
12 08:30 南南東 4 5000m -10 85 1013 弱い雪
12 08:00 南南東 4 3100m -10 85 1013 弱い雪
12 07:30 南南東 4 3000m -10 85 1013 弱い雪
12 07:00 南南東 5 1900m -10 85 1013
12 06:30 南南東 5 1600m -10 85 1014
12 06:00 南南東 5 2400m -10 85 1014 弱い雪
12 05:30 南南東 6 2900m -10 85 1015 弱い雪
12 05:00 南南東 6 2400m -11 85 1015 弱い雪
12 04:30 南南東 5 1300m -11 85 1016 低い地吹雪 雪
12 04:00 南南東 6 1300m -11 85 1016 高い地吹雪 雪
12 03:30 南南東 6 1200m -11 85 1017 高い地吹雪 雪
12 03:00 南南東 6 800m -11 85 1018 強い雪 高い地吹雪
12 02:30 南南東 6 800m -12 85 1019 高い地吹雪 強い雪
12 02:00 南南東 7 1000m -12 85 1019 高い地吹雪 雪
12 01:30 南南東 7 1100m -12 85 1020 雪 高い地吹雪
12 01:00 南南東 7 1400m -12 85 1021 高い地吹雪 雪
12 00:30 南南東 8 1300m -12 78 1022 高い地吹雪 雪
12 00:00 南南東 7 1800m -13 85 1023
11 23:30 南南東 7 1600m -13 85 1024
11 23:00 南南東 7 2200m -14 85 1025 弱い雪
11 22:30 南南東 7 1900m -14 85 1026
11 22:00 南南東 6 9000m -14 85 1028 弱い雪
11 21:30 南南東 6 10km以上 -14 78 1029
11 21:00 南南東 5 10km以上 -15 85 1030
11 20:30 南南東 5 10km以上 -15 85 1030
11 20:00 南南東 5 10km以上 -15 85 1031
11 19:30 南南東 4 10km以上 -15 78 1032
11 18:00 南南東 4 10km以上 -16 85 1035
11 17:30 南南東 4 10km以上 -16 85 1035
11 17:00 南南東 4 10km以上 -17 84 1036
11 16:30 南南東 3 10km以上 -17 84 1036
11 16:00 南南東 3 10km以上 -17 84 1037
11 15:30 南南東 3 10km以上 -18 84 1038
11 15:00 南南東 2 10km以上 -18 84 1038
11 14:30 南南東 2 10km以上 -18 84 1038
11 14:00 南南東 2 10km以上 -18 84 1038
11 13:30 2 10km以上 -18 84 1039
USNN 130800Z 04002MPS CAVOK M19/M21 Q1030 R03/410165 NOSIG RMK QFE769
USNN 130730Z 05002MPS CAVOK M19/M21 Q1030 R03/410165 NOSIG RMK QFE768
USNN 130700Z 05002MPS CAVOK M19/M22 Q1029 R03/410165 NOSIG RMK QFE768
USNN 130630Z 05002MPS CAVOK M20/M22 Q1029 R03/410165 NOSIG RMK QFE768
USNN 130600Z 05002MPS CAVOK M20/M22 Q1029 R03/410165 NOSIG RMK QFE767
USNN 130530Z 04003MPS CAVOK M21/M23 Q1028 R03/410165 NOSIG RMK QFE767
USNN 130500Z 04002MPS CAVOK M21/M24 Q1028 R03/410165 NOSIG RMK QFE767
USNN 130430Z 03002MPS CAVOK M22/M24 Q1028 R03/410165 NOSIG RMK QFE767
USNN 130400Z 04003MPS CAVOK M22/M25 Q1027 R03/410165 NOSIG RMK QFE766
USNN 130330Z 04003MPS CAVOK M23/M25 Q1027 R03/410165 NOSIG RMK QFE766
USNN 130300Z 04003MPS CAVOK M23/M25 Q1026 R03/410165 NOSIG RMK QFE766
USNN 130230Z 04003MPS CAVOK M23/M25 Q1026 R03/410165 NOSIG RMK QFE765
USNN 130200Z 04003MPS CAVOK M23/M25 Q1025 R03/410165 NOSIG RMK QFE765
USNN 130130Z 04003MPS CAVOK M23/M25 Q1025 R03/410165 NOSIG RMK QFE765
USNN 130100Z 03003MPS CAVOK M22/M25 Q1025 R03/410165 NOSIG RMK QFE764
USNN 130030Z 03002MPS CAVOK M22/M24 Q1024 R03/410165 NOSIG RMK QFE764
USNN 122330Z 02002MPS CAVOK M21/M23 Q1023 R03/420160 NOSIG RMK QFE764
USNN 122300Z 02002MPS CAVOK M21/M23 Q1023 R03/420160 NOSIG RMK QFE763
USNN 122230Z 01002MPS CAVOK M20/M23 Q1022 R03/420160 NOSIG RMK QFE763
USNN 122200Z 01002MPS CAVOK M20/M22 Q1022 R03/420160 NOSIG RMK QFE762
USNN 122130Z 36001MPS CAVOK M20/M22 Q1022 R03/420160 NOSIG RMK QFE762
USNN 122100Z 34001MPS 9999 FEW006 M19/M21 Q1021 R03/420160 NOSIG RMK QFE762
USNN 122030Z 36002MPS 9999 SCT006 M19/M21 Q1021 R03/420160 NOSIG RMK QFE761
USNN 122000Z 35002MPS 9999 SCT011 M18/M20 Q1020 R03/420160 NOSIG RMK QFE761
USNN 121930Z 34002MPS 9999 SCT025 M18/M19 Q1020 R03/420160 NOSIG RMK QFE761
USNN 121900Z 33002MPS 9999 SCT014 M17/M19 Q1019 R03/420160 NOSIG RMK QFE760
USNN 121830Z 34002MPS 9999 SCT023 M16/M18 Q1019 R03/420160 NOSIG RMK QFE760
USNN 121800Z 35002MPS 9999 SCT021 M15/M17 Q1018 R03/420160 NOSIG RMK QFE760
USNN 121730Z 32001MPS 9999 FEW026 M15/M16 Q1018 R03/420160 NOSIG RMK QFE759
USNN 121700Z 32002MPS 9999 FEW007 OVC027 M14/M16 Q1018 R03/490540 NOSIG RMK QFE759
USNN 121630Z 30002MPS CAVOK M14/M16 Q1017 R03/490540 NOSIG RMK QFE759
USNN 121600Z 31002MPS 9999 OVC028 M14/M15 Q1017 R03/490540 NOSIG RMK QFE759
USNN 121530Z 33002MPS 9999 SCT013 OVC038 M13/M15 Q1017 R03/490351 NOSIG RMK QFE758
USNN 121500Z 31001MPS 9000 -SN SCT011 OVC036 M13/M14 Q1016 R03/490351 NOSIG RMK QFE758
USNN 121430Z 31001MPS 5000 -SN OVC043 M12/M13 Q1016 R03/490351 NOSIG RMK QFE758
USNN 121330Z 31001MPS 7000 -SN OVC032 M11/M13 Q1016 R03/490351 NOSIG RMK QFE758
USNN 121300Z 32002MPS 5000 -SN OVC035 M11/M13 Q1015 R03/490351 NOSIG RMK QFE757
USNN 121230Z 31001MPS 9000 -SN OVC039 M11/M12 Q1015 R03/490539 NOSIG RMK QFE757
USNN 121200Z 32001MPS 9999 -SN OVC039 M11/M12 Q1015 R03/490539 NOSIG RMK QFE757
USNN 121130Z 34001MPS 9000 -SN OVC039 M11/M12 Q1014 R03/490539 NOSIG RMK QFE757
USNN 121100Z 35001MPS 8000 -SN OVC040 M11/M12 Q1014 R03/490539 NOSIG RMK QFE757
USNN 121030Z 35002MPS 9999 -SN OVC041 M11/M12 Q1014 R03/490539 NOSIG RMK QFE756
USNN 121000Z 35002MPS 9999 OVC039 M11/M12 Q1014 R03/490539 NOSIG RMK QFE756
USNN 120930Z VRB01MPS 9999 -SN OVC025 M10/M12 Q1013 R03/490539 NOSIG RMK QFE756
USNN 120900Z 05002MPS 6000 -SN OVC029 M10/M12 Q1013 R03/490539 NOSIG RMK QFE756
USNN 120830Z 07002MPS 8000 -SN OVC045 M09/M12 Q1013 R21/490539 NOSIG RMK QFE755
USNN 120800Z 07002MPS CAVOK M09/M12 Q1013 R21/490539 NOSIG RMK QFE755
USNN 120730Z 08002MPS 9000 NSC M09/M12 Q1012 R21/490539 NOSIG RMK QFE754
USNN 120700Z 12002MPS CAVOK M09/M12 Q1012 R21/490539 NOSIG RMK QFE754
USNN 120630Z 13002MPS 5000 -SN NSC M09/M12 Q1012 R21/493036 NOSIG RMK QFE754
USNN 120600Z 13002MPS 4500 -SN OVC045 M09/M11 Q1012 R21/493036 NOSIG RMK QFE754
USNN 120530Z 14003MPS 5000 -SN OVC037 M10/M12 Q1012 R21/493036 NOSIG RMK QFE754
USNN 120500Z 13003MPS 3600 -SN OVC038 M10/M12 Q1012 R21/493036 NOSIG RMK QFE754
USNN 120430Z 14004MPS 4600 -SN OVC032 M10/M12 Q1012 R21/493036 NOSIG RMK QFE754
USNN 120400Z 14004MPS 3900 -SN OVC034 M10/M12 Q1012 R21/493036 NOSIG RMK QFE754
USNN 120330Z 15004MPS 5000 -SN OVC030 M10/M12 Q1013 R21/453039 NOSIG RMK QFE755
USNN 120300Z 15004MPS 3100 -SN OVC030 M10/M12 Q1013 R21/453039 NOSIG RMK QFE755
USNN 120230Z 15004MPS 3000 -SN OVC032 M10/M12 Q1013 R21/453039 NOSIG RMK QFE755
USNN 120200Z 15005MPS 1900 R21/1500U SN OVC026 M10/M12 Q1013 R21/492836 NOSIG RMK QFE755
USNN 120130Z 15005MPS 1600 R21/P2000N SN OVC019 M10/M12 Q1014 R21/451843 NOSIG RMK QFE755
USNN 120100Z 15005MPS 2400 -SN OVC023 M10/M12 Q1014 R21/451843 NOSIG RMK QFE756
USNN 120030Z 15006MPS 2900 -SN OVC019 M10/M12 Q1015 R21/451843 NOSIG RMK QFE756
USNN 120000Z 15006MPS 2400 -SN OVC020 M11/M13 Q1015 R21/451843 NOSIG RMK QFE756
USNN 112330Z 15005MPS 1300 1000NW R21/P2000D SN DRSN OVC015 M11/M13 Q1016 R21/451843 NOSIG RMK QFE757
USNN 112300Z 15006MPS 1300 1200N R21/P2000U SN BLSN OVC014 M11/M13 Q1016 R21/421554 NOSIG RMK QFE757
USNN 112230Z 15006MPS 1200 1000NW R21/P2000D SN BLSN VV014 M11/M13 Q1017 R21/421554 TEMPO 0600 +SN RMK QFE758
USNN 112200Z 15006MPS 0800 R21/1900N +SN BLSN VV011 M11/M13 Q1018 R21/421554 TEMPO 0600 +SN RMK QFE758
USNN 112130Z 15006MPS 0800 R21/1900D +SN BLSN VV011 M12/M14 Q1019 R21/421554 TEMPO 0600 +SN RMK QFE759
USNN 112100Z 16007MPS 1000 R21/P2000U SN BLSN VV014 M12/M14 Q1019 R21/421554 TEMPO 0600 +SN RMK QFE759
USNN 112030Z 16007MPS 1100 R21/P2000N SN BLSN OVC013 M12/M14 Q1020 R21/410165 TEMPO 0600 +SN RMK QFE760
USNN 112000Z 16007MPS 1400 1300N R21/P2000D SN BLSN OVC012 M12/M14 Q1021 R21/410165 TEMPO 0600 +SN RMK QFE761
USNN 111930Z 16008MPS 1300 R21/P2000D SN BLSN OVC013 M12/M15 Q1022 R21/410165 TEMPO 0600 +SN RMK QFE761
USNN 111900Z 16007MPS 1800 R21/P2000U SN OVC022 M13/M15 Q1023 R21/410165 TEMPO 0600 +SN RMK QFE762
USNN 111830Z 15007MPS 1600 R21/P2000D SN OVC014 M13/M15 Q1024 R21/410165 TEMPO 0800 +SN RMK QFE763
USNN 111800Z 15007MPS 2200 -SN OVC027 M14/M16 Q1025 R21/410165 TEMPO 0800 +SN RMK QFE764
USNN 111730Z 15007MPS 1900 R21/P2000U SN OVC026 M14/M16 Q1026 R21/410165 TEMPO 0800 +SN RMK QFE765
USNN 111700Z 15006MPS 9000 -SN OVC031 M14/M16 Q1028 R21/410165 NOSIG RMK QFE766
USNN 111630Z 15006MPS 9999 OVC048 M14/M17 Q1029 R21/410165 NOSIG RMK QFE766
USNN 111600Z 15005MPS CAVOK M15/M17 Q1030 R21/410165 NOSIG RMK QFE767
USNN 111530Z 15005MPS CAVOK M15/M17 Q1030 R21/410165 NOSIG RMK QFE768
USNN 111500Z 15005MPS CAVOK M15/M17 Q1031 R21/410165 NOSIG RMK QFE768
USNN 111430Z 16004MPS CAVOK M15/M18 Q1032 R21/410165 NOSIG RMK QFE769
USNN 111300Z 16004MPS CAVOK M16/M18 Q1035 R21/410165 NOSIG RMK QFE771
USNN 111230Z 15004MPS CAVOK M16/M18 Q1035 R21/410165 NOSIG RMK QFE771
USNN 111200Z 15004MPS CAVOK M17/M19 Q1036 R21/410165 NOSIG RMK QFE772
USNN 111130Z 15003MPS CAVOK M17/M19 Q1036 R21/410165 NOSIG RMK QFE772
USNN 111100Z 15003MPS CAVOK M17/M19 Q1037 R21/410165 NOSIG RMK QFE773
USNN 111030Z 15003MPS CAVOK M18/M20 Q1038 R21/410165 NOSIG RMK QFE773
USNN 111000Z 16002MPS CAVOK M18/M20 Q1038 R21/410165 NOSIG RMK QFE773
USNN 110930Z 16002MPS CAVOK M18/M20 Q1038 R21/410165 NOSIG RMK QFE774
USNN 110900Z 16002MPS CAVOK M18/M20 Q1038 R21/410165 NOSIG RMK QFE774
USNN 110830Z 17002MPS CAVOK M18/M20 Q1039 R21/410165 NOSIG RMK QFE774